Time;durP1;ratioP1;P1;durP2;ratioP2;P2;SDS_P1;SDS_P2;PMS_P1;PMS_P2;Temp;Humidity;BMP_temperature;BMP_pressure;BME280_temperature;BME280_humidity;BME280_pressure;Samples;Min_cycle;Max_cycle;Signal;HPM_P1;HPM_P2
2022/06/08 00:01:17;;;;;;;12.20;5.43;;;;;;;18.26;77.58;100262.56;4956118;28;20066;-85
2022/06/08 00:03:56;;;;;;;8.02;5.30;;;;;;;18.09;77.37;100255.13;4972580;28;20049;-86
2022/06/08 00:06:21;;;;;;;10.75;6.03;;;;;;;18.00;77.37;100254.56;4949306;28;20079;-86
2022/06/08 00:08:47;;;;;;;11.15;6.43;;;;;;;17.57;77.77;100197.56;4956310;28;20071;-86
2022/06/08 00:11:13;;;;;;;11.18;5.88;;;;;;;18.46;77.14;100259.19;4952442;28;20047;-85
2022/06/08 00:13:40;;;;;;;14.13;6.35;;;;;;;18.18;77.62;100200.84;4952414;28;20146;-86
2022/06/08 00:16:06;;;;;;;8.77;5.38;;;;;;;18.46;78.38;100253.00;4958199;28;20117;-85
2022/06/08 00:18:32;;;;;;;18.15;6.07;;;;;;;18.58;77.29;100260.53;4966808;28;20053;-86
2022/06/08 00:21:00;;;;;;;7.68;5.03;;;;;;;18.64;76.63;100248.84;4955658;28;20039;-84
2022/06/08 00:23:26;;;;;;;7.90;5.82;;;;;;;18.05;76.92;100255.28;4973265;28;20174;-85
2022/06/08 00:25:53;;;;;;;14.75;7.05;;;;;;;17.35;77.66;100181.44;4962658;28;20043;-86
2022/06/08 00:28:19;;;;;;;9.07;6.25;;;;;;;17.36;78.35;100178.75;4956157;28;20328;-85
2022/06/08 00:30:44;;;;;;;10.95;6.22;;;;;;;18.00;77.82;100242.16;4944988;28;20061;-85
2022/06/08 00:33:13;;;;;;;9.90;6.38;;;;;;;17.72;77.42;100165.19;4973220;28;20030;-86
2022/06/08 00:35:39;;;;;;;8.85;5.75;;;;;;;18.20;77.69;100245.94;4972631;28;20331;-86
2022/06/08 00:38:06;;;;;;;13.25;4.40;;;;;;;17.56;77.66;100153.34;4957569;28;20066;-85
2022/06/08 00:40:47;;;;;;;9.52;6.50;;;;;;;17.64;77.72;100169.91;4967881;28;20039;-85
2022/06/08 00:43:13;;;;;;;9.25;5.72;;;;;;;17.66;78.55;100203.44;4966359;28;20077;-86
2022/06/08 00:45:39;;;;;;;7.68;5.22;;;;;;;17.38;78.43;100165.47;4957501;28;20689;-86
2022/06/08 00:48:06;;;;;;;10.13;6.47;;;;;;;17.39;79.37;100170.69;4972150;28;20041;-85
2022/06/08 00:50:43;;;;;;;10.38;6.20;;;;;;;18.07;78.62;100237.50;4939247;28;20061;-85
2022/06/08 00:53:10;;;;;;;18.02;5.63;;;;;;;17.73;78.24;100143.94;4961801;28;20120;-85
2022/06/08 00:55:38;;;;;;;7.78;5.80;;;;;;;17.97;77.93;100161.75;4952386;28;20045;-86
2022/06/08 00:58:11;;;;;;;11.35;8.23;;;;;;;17.99;78.96;100235.13;4956073;28;20046;-86
2022/06/08 01:00:40;;;;;;;10.25;7.70;;;;;;;17.59;79.58;100225.78;4956030;28;20035;-86
2022/06/08 01:03:08;;;;;;;11.40;6.68;;;;;;;17.49;80.04;100213.75;4958672;28;20045;-86
2022/06/08 01:05:49;;;;;;;14.32;6.40;;;;;;;17.93;79.21;100237.97;4959677;28;20071;-86
2022/06/08 01:08:43;;;;;;;15.52;6.90;;;;;;;18.06;77.91;100217.22;4970887;28;20039;-86
2022/06/08 01:11:37;;;;;;;10.88;6.72;;;;;;;18.21;79.25;100221.97;4977100;28;20054;-84
2022/06/08 01:14:08;;;;;;;10.20;6.00;;;;;;;17.20;79.19;100085.56;4968776;28;20036;-86
2022/06/08 01:16:34;;;;;;;10.30;6.75;;;;;;;17.79;79.70;100221.59;4969485;28;20137;-86
2022/06/08 01:19:04;;;;;;;10.55;6.15;;;;;;;17.80;80.06;100213.59;4964970;28;20027;-87
2022/06/08 01:21:29;;;;;;;10.02;6.82;;;;;;;17.51;80.94;100209.22;4976521;28;20094;-86
2022/06/08 01:24:00;;;;;;;8.82;6.47;;;;;;;17.51;81.49;100206.56;4971430;28;20043;-86
2022/06/08 01:26:48;;;;;;;7.88;5.55;;;;;;;17.02;81.32;100118.84;4958654;28;20027;-86
2022/06/08 01:29:14;;;;;;;15.02;6.38;;;;;;;17.16;81.25;100118.41;4959724;28;20042;-86
2022/06/08 01:32:09;;;;;;;10.10;6.07;;;;;;;17.45;81.18;100148.44;4972396;28;20031;-85
2022/06/08 01:34:52;;;;;;;9.73;5.60;;;;;;;16.87;81.68;100098.09;4941432;28;20103;-86
2022/06/08 01:37:28;;;;;;;11.70;7.20;;;;;;;17.01;82.45;100132.13;4956613;28;20039;-86
2022/06/08 01:40:16;;;;;;;8.32;6.07;;;;;;;17.48;82.73;100190.75;4966641;28;20074;-86
2022/06/08 01:43:03;;;;;;;7.68;5.70;;;;;;;16.85;83.19;100110.53;4958023;28;20965;-86
2022/06/08 01:45:37;;;;;;;8.88;6.47;;;;;;;17.80;82.55;100202.13;4971155;28;20045;-85
2022/06/08 01:48:37;;;;;;;8.52;5.88;;;;;;;18.01;81.31;100192.59;4967265;28;20640;-85
2022/06/08 01:51:02;;;;;;;9.75;6.50;;;;;;;18.02;81.31;100202.28;4961207;28;20046;-86
2022/06/08 01:53:48;;;;;;;12.70;7.05;;;;;;;17.51;81.79;100142.91;4952742;28;20031;-86
2022/06/08 01:56:32;;;;;;;11.95;6.95;;;;;;;16.94;83.01;100126.16;4968253;28;20104;-86
2022/06/08 01:59:05;;;;;;;11.02;7.72;;;;;;;17.59;82.94;100222.28;4976175;28;20038;-87
2022/06/08 02:01:51;;;;;;;8.80;6.25;;;;;;;17.04;82.61;100108.19;4971579;28;20562;-84
2022/06/08 02:04:35;;;;;;;14.15;6.07;;;;;;;17.05;83.53;100139.09;4954309;28;20125;-86
2022/06/08 02:07:51;;;;;;;9.00;6.82;;;;;;;16.75;84.98;100147.00;4965378;28;20051;-86
2022/06/08 02:10:54;;;;;;;11.70;7.32;;;;;;;16.94;84.17;100144.72;4941429;28;20062;-85
2022/06/08 02:13:26;;;;;;;14.82;6.97;;;;;;;16.67;85.72;100154.34;4961298;28;20066;-86
2022/06/08 02:15:58;;;;;;;13.02;7.55;;;;;;;17.32;84.97;100224.00;4940541;28;20039;-86
2022/06/08 02:18:48;;;;;;;8.85;6.45;;;;;;;17.32;84.80;100222.19;4957938;28;20047;-85
2022/06/08 02:21:43;;;;;;;13.75;7.35;;;;;;;16.88;84.74;100160.81;4959126;28;20081;-85
2022/06/08 02:24:17;;;;;;;9.40;6.85;;;;;;;17.40;84.96;100227.28;4957964;28;20149;-86
2022/06/08 02:26:50;;;;;;;9.40;6.85;;;;;;;17.52;84.35;100211.84;4950618;28;20054;-85
2022/06/08 02:29:22;;;;;;;9.45;6.70;;;;;;;17.29;85.08;100209.03;4951227;28;20073;-85
2022/06/08 02:31:53;;;;;;;9.85;7.60;;;;;;;17.41;84.69;100218.41;4958932;28;20026;-86
2022/06/08 02:34:42;;;;;;;14.50;7.60;;;;;;;17.09;85.85;100234.38;4973042;28;20093;-86
2022/06/08 02:37:37;;;;;;;9.93;7.85;;;;;;;17.34;85.66;100225.69;4968495;28;20093;-85
2022/06/08 02:40:06;;;;;;;8.82;6.07;;;;;;;17.19;85.52;100221.72;4953010;28;20491;-85
2022/06/08 02:42:40;;;;;;;14.18;7.15;;;;;;;17.28;85.61;100215.28;4957549;28;20038;-84
2022/06/08 02:45:18;;;;;;;11.05;7.47;;;;;;;17.54;83.39;100235.69;4970834;28;20046;-85
2022/06/08 02:47:47;;;;;;;9.52;6.93;;;;;;;16.87;83.89;100143.16;4940533;28;20074;-85
2022/06/08 02:50:22;;;;;;;9.13;6.38;;;;;;;16.61;84.03;100126.22;4960156;28;20043;-85
2022/06/08 02:52:52;;;;;;;14.50;8.25;;;;;;;16.60;85.20;100143.03;4941959;28;20023;-85
2022/06/08 02:55:54;;;;;;;12.05;7.65;;;;;;;17.13;85.22;100219.25;4959983;28;20038;-85
2022/06/08 02:59:09;;;;;;;12.05;7.72;;;;;;;17.02;83.77;100158.63;4978560;28;20034;-85
2022/06/08 03:01:58;;;;;;;10.13;6.88;;;;;;;17.42;84.32;100223.66;4943233;28;20050;-86
2022/06/08 03:04:35;;;;;;;16.02;7.20;;;;;;;16.94;84.42;100139.41;4963708;28;20428;-85
2022/06/08 03:07:06;;;;;;;20.05;7.07;;;;;;;17.18;85.46;100222.63;4952761;28;20391;-85
2022/06/08 03:09:33;;;;;;;8.82;6.72;;;;;;;17.36;84.27;100221.19;4939218;29;20874;-85
2022/06/08 03:12:04;;;;;;;12.77;7.70;;;;;;;17.35;84.43;100219.47;4933648;29;20040;-85
2022/06/08 03:14:31;;;;;;;20.45;9.30;;;;;;;17.16;84.73;100215.63;4920175;29;20092;-85
2022/06/08 03:17:01;;;;;;;13.70;7.07;;;;;;;16.95;84.93;100172.06;4919948;29;20032;-84
2022/06/08 03:19:30;;;;;;;11.98;8.25;;;;;;;17.07;83.50;100151.38;4924191;29;20040;-87
2022/06/08 03:21:56;;;;;;;12.38;7.72;;;;;;;17.10;84.04;100187.53;4938395;29;20035;-84
2022/06/08 03:24:24;;;;;;;9.90;7.90;;;;;;;17.56;84.18;100238.25;4931750;29;20090;-86
2022/06/08 03:27:00;;;;;;;13.20;8.07;;;;;;;17.63;83.68;100253.06;4927938;29;20028;-86
2022/06/08 03:29:26;;;;;;;10.70;6.90;;;;;;;17.80;83.43;100244.59;4932828;29;20114;-86
2022/06/08 03:31:54;;;;;;;14.65;7.93;;;;;;;17.29;83.61;100201.09;4931724;29;20036;-85
2022/06/08 03:34:22;;;;;;;9.35;7.72;;;;;;;17.26;83.51;100159.63;4933569;29;20040;-84
2022/06/08 03:36:48;;;;;;;17.58;7.35;;;;;;;17.08;83.81;100162.84;4928307;29;20400;-84
2022/06/08 03:39:14;;;;;;;10.45;7.32;;;;;;;17.51;83.44;100219.84;4926762;29;20032;-86
2022/06/08 03:41:40;;;;;;;16.60;7.22;;;;;;;17.51;84.06;100234.00;4919644;29;20519;-85
2022/06/08 03:44:06;;;;;;;16.95;7.85;;;;;;;17.44;84.75;100229.81;4925600;29;20034;-84
2022/06/08 03:46:36;;;;;;;23.55;8.10;;;;;;;17.05;84.18;100165.59;4930666;29;20492;-85
2022/06/08 03:49:03;;;;;;;19.98;7.13;;;;;;;17.03;84.61;100172.72;4938632;29;20031;-85
2022/06/08 03:51:30;;;;;;;18.45;7.72;;;;;;;17.43;84.90;100228.03;4923908;29;20032;-85
2022/06/08 03:54:01;;;;;;;11.73;8.45;;;;;;;17.71;84.76;100251.91;4937282;29;20035;-84
2022/06/08 03:56:28;;;;;;;15.80;7.80;;;;;;;17.60;83.85;100193.00;4929317;28;20036;-85
2022/06/08 03:58:55;;;;;;;12.95;8.43;;;;;;;17.03;84.60;100167.44;4924785;29;20028;-86
2022/06/08 04:01:30;;;;;;;20.15;8.40;;;;;;;17.42;86.08;100254.59;4925155;29;20051;-84
2022/06/08 04:03:57;;;;;;;12.48;7.45;;;;;;;17.42;85.02;100249.31;4936933;29;20508;-83
2022/06/08 04:06:23;;;;;;;13.50;8.13;;;;;;;17.20;85.67;100212.84;4938318;28;20059;-85
2022/06/08 04:08:49;;;;;;;15.88;8.85;;;;;;;16.97;86.18;100179.06;4967444;28;20042;-84
2022/06/08 04:11:16;;;;;;;16.92;8.20;;;;;;;17.80;85.44;100276.44;4976161;28;20037;-85
2022/06/08 04:13:42;;;;;;;15.35;7.28;;;;;;;18.11;84.60;100268.38;4964248;28;20035;-85
2022/06/08 04:16:08;;;;;;;11.13;8.38;;;;;;;18.26;83.38;100259.00;4956396;28;20066;-85
2022/06/08 04:18:34;;;;;;;10.98;7.63;;;;;;;17.76;83.01;100200.47;4956840;28;20042;-85
2022/06/08 04:21:02;;;;;;;20.98;7.88;;;;;;;18.32;83.01;100266.78;4965403;28;20031;-85
2022/06/08 04:23:30;;;;;;;14.48;7.85;;;;;;;17.93;83.24;100190.19;4939313;28;20035;-85
2022/06/08 04:25:57;;;;;;;10.40;7.35;;;;;;;18.64;82.09;100249.72;4961929;28;20027;-85
2022/06/08 04:28:24;;;;;;;11.55;6.90;;;;;;;18.13;81.83;100176.25;4966390;28;20062;-86
2022/06/08 04:30:50;;;;;;;10.20;6.78;;;;;;;17.99;82.71;100194.44;4970641;28;20447;-87
2022/06/08 04:33:18;;;;;;;12.98;8.35;;;;;;;18.59;81.66;100217.13;4939687;28;20023;-85
2022/06/08 04:35:46;;;;;;;9.98;7.45;;;;;;;18.60;81.19;100197.56;4972462;28;20039;-85
2022/06/08 04:38:13;;;;;;;12.73;7.55;;;;;;;18.91;81.31;100249.66;4966791;28;20061;-85
2022/06/08 04:40:40;;;;;;;12.20;6.45;;;;;;;19.19;80.94;100266.28;4957669;28;20081;-85
2022/06/08 04:43:07;;;;;;;16.15;7.25;;;;;;;19.20;80.27;100269.84;4959227;28;20054;-86
2022/06/08 04:45:37;;;;;;;9.73;6.40;;;;;;;18.62;81.26;100185.09;4956736;28;20039;-85
2022/06/08 04:48:03;;;;;;;18.10;7.07;;;;;;;18.72;81.60;100191.81;4957612;28;20039;-85
2022/06/08 04:50:30;;;;;;;20.25;11.02;;;;;;;19.43;80.21;100268.06;4968334;28;20031;-85
2022/06/08 04:52:55;;;;;;;16.05;10.20;;;;;;;19.50;80.46;100270.47;4954059;28;20062;-85
2022/06/08 04:55:22;;;;;;;11.25;8.23;;;;;;;19.00;80.80;100212.06;4953284;28;20041;-86
2022/06/08 04:57:49;;;;;;;17.13;9.30;;;;;;;19.06;79.71;100217.16;4965706;28;20618;-86
2022/06/08 05:00:20;;;;;;;20.50;6.72;;;;;;;19.28;80.56;100281.03;4957361;28;20039;-87
2022/06/08 05:02:51;;;;;;;16.88;8.98;;;;;;;19.56;80.14;100283.50;4965403;28;20125;-85
2022/06/08 05:05:26;;;;;;;14.40;9.07;;;;;;;19.06;80.05;100219.84;4974195;28;20035;-85
2022/06/08 05:07:53;;;;;;;15.15;8.05;;;;;;;19.57;79.97;100268.41;4955732;28;20055;-85
2022/06/08 05:10:21;;;;;;;14.60;8.65;;;;;;;19.77;79.08;100270.31;4959054;28;20045;-84
2022/06/08 05:12:47;;;;;;;14.57;7.10;;;;;;;19.75;79.84;100272.16;4963718;28;20066;-85
2022/06/08 05:15:17;;;;;;;8.13;6.40;;;;;;;19.74;79.26;100271.31;4955493;28;20095;-85
2022/06/08 05:17:43;;;;;;;12.77;6.53;;;;;;;19.21;79.22;100206.88;4964495;28;20027;-85
2022/06/08 05:20:10;;;;;;;9.43;6.68;;;;;;;19.45;80.13;100268.88;4955370;28;20046;-85
2022/06/08 05:22:38;;;;;;;15.15;7.28;;;;;;;18.93;81.20;100263.75;4927081;28;20384;-85
2022/06/08 05:25:07;;;;;;;14.38;6.93;;;;;;;18.61;81.80;100198.44;4957099;28;20049;-85
2022/06/08 05:27:32;;;;;;;19.63;9.13;;;;;;;19.57;80.53;100295.91;4959041;28;20039;-84
2022/06/08 05:29:58;;;;;;;12.88;6.88;;;;;;;19.40;80.24;100295.66;4941710;28;20037;-85
2022/06/08 05:32:25;;;;;;;13.23;8.27;;;;;;;19.72;79.41;100305.09;4951708;28;20435;-86
2022/06/08 05:34:50;;;;;;;16.95;7.25;;;;;;;19.45;80.70;100300.81;4963856;28;20031;-86
2022/06/08 05:37:16;;;;;;;15.73;7.03;;;;;;;19.68;80.07;100289.28;4958552;28;20029;-83
2022/06/08 05:39:42;;;;;;;13.00;8.23;;;;;;;19.27;79.79;100231.44;4966013;28;20479;-85
2022/06/08 05:42:09;;;;;;;17.33;8.20;;;;;;;19.55;79.92;100297.75;4958888;28;20036;-85
2022/06/08 05:44:36;;;;;;;10.95;7.82;;;;;;;19.28;78.97;100225.19;4943644;28;20035;-85
2022/06/08 05:47:02;;;;;;;10.57;6.90;;;;;;;19.73;80.35;100303.31;4936339;28;20031;-85
2022/06/08 05:49:28;;;;;;;14.80;8.23;;;;;;;19.74;78.23;100302.41;4946534;28;20038;-87
2022/06/08 05:51:55;;;;;;;11.52;7.32;;;;;;;19.36;78.68;100203.59;4978701;28;20383;-86
2022/06/08 05:54:20;;;;;;;15.10;7.68;;;;;;;19.84;78.26;100268.28;4951725;28;20038;-86
2022/06/08 05:56:46;;;;;;;14.05;6.57;;;;;;;19.69;79.13;100304.34;4972404;28;20034;-86
2022/06/08 05:59:12;;;;;;;11.18;6.18;;;;;;;19.55;79.61;100305.75;4976834;28;20038;-85
2022/06/08 06:01:38;;;;;;;7.60;5.65;;;;;;;20.03;76.93;100240.81;4952603;28;20081;-85
2022/06/08 06:04:07;;;;;;;15.43;6.07;;;;;;;20.52;76.65;100295.63;4951429;28;20085;-84
2022/06/08 06:06:33;;;;;;;11.05;6.78;;;;;;;20.41;76.84;100298.72;4962838;28;20054;-86
2022/06/08 06:09:00;;;;;;;7.03;4.65;;;;;;;20.73;75.23;100291.19;4956392;28;20129;-85
2022/06/08 06:11:25;;;;;;;9.45;5.97;;;;;;;20.73;73.91;100308.06;4963222;28;20159;-85
2022/06/08 06:13:51;;;;;;;8.00;6.15;;;;;;;20.15;75.45;100308.69;4965837;28;20138;-87
2022/06/08 06:16:16;;;;;;;11.48;6.63;;;;;;;19.72;76.81;100243.00;4965554;28;20031;-86
2022/06/08 06:18:42;;;;;;;10.27;6.50;;;;;;;20.21;76.78;100308.44;4944720;28;20051;-85
2022/06/08 06:21:14;;;;;;;17.17;6.18;;;;;;;20.09;75.89;100305.41;4959915;28;20435;-87
2022/06/08 06:23:40;;;;;;;7.78;5.68;;;;;;;19.90;76.36;100236.94;4947503;28;20121;-90
2022/06/08 06:26:05;;;;;;;8.65;5.35;;;;;;;20.21;76.02;100257.81;4962908;28;20117;-90
2022/06/08 06:28:31;;;;;;;7.90;5.65;;;;;;;20.03;75.57;100267.44;4973307;28;20035;-91
2022/06/08 06:31:02;;;;;;;13.43;6.97;;;;;;;20.32;76.00;100310.69;4942965;28;20039;-91
2022/06/08 06:33:28;;;;;;;7.63;5.75;;;;;;;19.93;76.52;100242.13;4947181;28;20042;-85
2022/06/08 06:35:53;;;;;;;10.13;6.50;;;;;;;20.20;76.65;100281.84;4960201;28;20043;-91
2022/06/08 06:38:19;;;;;;;12.40;8.13;;;;;;;20.89;72.89;100294.06;4936188;28;20035;-87
2022/06/08 06:40:45;;;;;;;8.50;5.90;;;;;;;20.96;73.51;100242.16;4957445;28;20047;-85
2022/06/08 06:43:14;;;;;;;11.48;5.68;;;;;;;21.34;71.61;100291.06;4961370;28;20113;-91
2022/06/08 06:45:40;;;;;;;13.15;5.85;;;;;;;21.31;71.66;100295.69;4967557;28;20031;-87
2022/06/08 06:48:06;;;;;;;6.78;4.65;;;;;;;21.19;70.52;100244.63;4962103;28;20046;-89
2022/06/08 06:50:33;;;;;;;9.85;5.05;;;;;;;20.70;69.29;100195.31;4952311;28;20031;-88
2022/06/08 06:53:01;;;;;;;8.32;3.72;;;;;;;21.22;67.66;100244.47;4937547;28;20579;-90
2022/06/08 06:55:32;;;;;;;4.25;2.72;;;;;;;21.28;65.55;100272.66;4971514;28;20034;-91
2022/06/08 06:57:59;;;;;;;4.07;2.28;;;;;;;21.98;66.82;100291.63;4959496;28;20126;-90
2022/06/08 07:00:25;;;;;;;7.80;3.03;;;;;;;21.01;66.05;100216.97;4963719;28;20134;-87
2022/06/08 07:02:51;;;;;;;7.40;3.22;;;;;;;21.76;63.41;100217.88;4964215;28;20047;-87
2022/06/08 07:05:24;;;;;;;4.20;2.67;;;;;;;21.57;62.64;100207.25;4943972;28;20039;-88
2022/06/08 07:07:50;;;;;;;;;;;;;;;22.32;63.14;100280.16;4943980;28;20063;-90
2022/06/08 07:10:18;;;;;;;7.15;4.03;;;;;;;22.29;64.36;100208.13;4969573;28;20401;-90
2022/06/08 07:12:44;;;;;;;11.10;3.88;;;;;;;22.07;63.87;100240.41;4943824;28;20507;-90
2022/06/08 07:15:19;;;;;;;4.60;2.58;;;;;;;22.03;63.91;100273.56;4942131;29;20054;-89
2022/06/08 07:17:48;;;;;;;12.80;2.63;;;;;;;21.88;65.28;100206.59;4947896;29;20028;-88
2022/06/08 07:20:14;;;;;;;6.32;3.75;;;;;;;21.99;65.57;100291.56;4941731;29;20507;-90
2022/06/08 07:22:41;;;;;;;10.07;5.93;;;;;;;21.36;66.61;100234.94;4939603;29;20613;-87
2022/06/08 07:25:14;;;;;;;6.07;3.55;;;;;;;21.99;65.74;100283.53;4937214;29;20066;-89
2022/06/08 07:27:43;;;;;;;5.97;3.28;;;;;;;21.95;66.01;100275.75;4942527;28;20043;-89
2022/06/08 07:30:10;;;;;;;7.43;3.45;;;;;;;22.39;64.62;100213.88;4939688;29;20146;-89
2022/06/08 07:32:36;;;;;;;5.68;3.45;;;;;;;22.26;63.94;100225.16;4934811;29;20048;-88
2022/06/08 07:35:04;;;;;;;8.52;3.95;;;;;;;22.76;63.13;100279.66;4933183;29;20031;-89
2022/06/08 07:37:30;;;;;;;9.15;3.90;;;;;;;22.87;61.90;100247.81;4948539;28;20078;-91
2022/06/08 07:39:57;;;;;;;6.38;3.80;;;;;;;22.86;62.87;100214.00;4953656;28;20043;-88
2022/06/08 07:42:22;;;;;;;14.18;4.50;;;;;;;22.92;60.46;100279.69;4937230;29;20036;-88
2022/06/08 07:44:49;;;;;;;9.27;5.28;;;;;;;22.69;62.71;100288.97;4938022;29;20059;-89
2022/06/08 07:47:15;;;;;;;13.18;3.85;;;;;;;22.60;60.58;100239.47;4938516;29;20039;-90
2022/06/08 07:49:42;;;;;;;9.20;3.60;;;;;;;22.35;60.79;100215.81;4943689;28;20043;-88
2022/06/08 07:52:25;;;;;;;5.72;2.35;;;;;;;23.09;59.72;100289.53;4933244;29;20043;-89
2022/06/08 07:54:52;;;;;;;6.72;3.13;;;;;;;23.15;59.67;100222.28;4947659;28;20070;-89
2022/06/08 07:57:32;;;;;;;7.85;3.65;;;;;;;22.51;59.44;100222.09;4952786;28;20058;-87
2022/06/08 07:59:58;;;;;;;11.73;4.20;;;;;;;22.81;58.23;100216.06;4966170;28;20054;-89
2022/06/08 08:02:24;;;;;;;9.38;3.13;;;;;;;22.32;60.57;100240.06;4939729;28;20166;-88
2022/06/08 08:04:51;;;;;;;8.57;3.75;;;;;;;22.64;59.62;100280.28;4936020;29;20086;-85
2022/06/08 08:07:18;;;;;;;3.53;2.10;;;;;;;22.58;56.86;100211.94;4951038;28;20051;-86
2022/06/08 08:09:44;;;;;;;10.90;3.45;;;;;;;22.57;57.35;100190.63;4964091;28;20110;-86
2022/06/08 08:12:12;;;;;;;12.70;4.78;;;;;;;23.18;58.23;100263.13;4967929;28;20035;-85
2022/06/08 08:14:38;;;;;;;6.80;3.85;;;;;;;23.01;59.11;100248.94;4958220;28;20051;-87
2022/06/08 08:17:04;;;;;;;27.25;5.20;;;;;;;23.45;58.99;100259.00;4961463;28;20023;-85
2022/06/08 08:19:29;;;;;;;6.32;3.35;;;;;;;23.43;59.20;100253.72;4964628;28;20487;-86
2022/06/08 08:21:56;;;;;;;13.48;5.65;;;;;;;22.84;59.69;100186.47;4959019;28;20043;-88
2022/06/08 08:24:22;;;;;;;5.10;2.75;;;;;;;23.03;60.41;100239.00;4961492;28;20047;-78
2022/06/08 08:26:51;;;;;;;5.35;3.13;;;;;;;22.93;59.60;100262.69;4943661;28;20031;-77
2022/06/08 08:29:18;;;;;;;8.48;4.15;;;;;;;23.00;60.88;100196.38;4966424;28;20035;-77
2022/06/08 08:31:44;;;;;;;11.30;3.65;;;;;;;23.14;60.66;100191.97;4956938;28;20046;-77
2022/06/08 08:34:09;;;;;;;12.13;4.78;;;;;;;23.88;59.75;100228.00;4951408;28;20031;-77
2022/06/08 08:36:36;;;;;;;6.45;3.55;;;;;;;24.14;60.92;100247.00;4950122;28;20325;-77
2022/06/08 08:39:02;;;;;;;9.00;3.65;;;;;;;23.42;59.09;100184.22;4951705;28;20038;-78
2022/06/08 08:44:46;;;;;;;10.80;3.90;;;;;;;24.56;56.66;100195.34;4953928;28;20054;-78
2022/06/08 08:47:17;;;;;;;13.27;4.00;;;;;;;25.54;56.62;100250.03;4951436;28;20511;-79
2022/06/08 08:49:54;;;;;;;7.05;3.75;;;;;;;23.88;57.62;100246.75;4950154;28;20046;-83
2022/06/08 08:52:26;;;;;;;5.93;3.33;;;;;;;24.05;56.34;100194.81;4952846;28;20039;-77
2022/06/08 08:54:57;;;;;;;5.15;2.83;;;;;;;23.94;55.94;100235.66;4929603;28;20496;-77
2022/06/08 08:57:52;;;;;;;9.52;3.28;;;;;;;23.44;56.83;100215.31;4948562;28;20108;-78
2022/06/08 09:00:31;;;;;;;7.88;3.92;;;;;;;23.36;57.96;100183.56;4961160;28;20539;-77
2022/06/08 09:03:18;;;;;;;3.95;2.10;;;;;;;23.49;58.42;100252.53;4944868;28;20134;-76
2022/06/08 09:05:48;;;;;;;4.65;2.70;;;;;;;24.20;56.47;100234.13;4956818;28;20113;-76
2022/06/08 09:08:15;;;;;;;7.43;3.47;;;;;;;23.78;55.95;100227.63;4913230;29;20059;-78
2022/06/08 09:10:43;;;;;;;8.07;2.33;;;;;;;23.38;54.91;100195.06;4932355;29;20046;-76
2022/06/08 09:13:17;;;;;;;4.30;2.47;;;;;;;24.17;53.41;100206.63;4939549;28;20082;-77
2022/06/08 09:15:52;;;;;;;12.93;3.58;;;;;;;24.32;52.04;100183.38;4935565;29;20044;-78
2022/06/08 09:18:39;;;;;;;5.85;2.75;;;;;;;24.15;53.56;100221.94;4932126;29;20280;-77
2022/06/08 09:21:35;;;;;;;4.72;2.80;;;;;;;24.99;53.88;100213.25;4940683;29;20051;-77
2022/06/08 09:24:17;;;;;;;6.60;2.97;;;;;;;24.81;52.16;100251.00;4941140;28;20091;-78
2022/06/08 09:26:44;;;;;;;5.47;3.10;;;;;;;25.49;51.68;100175.09;4952700;28;20053;-77
2022/06/08 09:29:23;;;;;;;8.82;3.70;;;;;;;26.26;49.49;100221.03;4950730;28;20063;-78
2022/06/08 09:31:50;;;;;;;6.13;3.80;;;;;;;25.37;52.19;100175.03;4952253;28;20062;-78
2022/06/08 09:34:28;;;;;;;6.22;3.78;;;;;;;24.79;50.86;100180.47;4950201;28;20058;-78
2022/06/08 09:37:24;;;;;;;16.58;6.28;;;;;;;25.40;53.37;100218.72;4943881;28;20106;-78
2022/06/08 09:39:51;;;;;;;8.73;4.57;;;;;;;25.40;53.63;100210.66;4938219;28;20122;-79
2022/06/08 09:42:35;;;;;;;5.78;3.58;;;;;;;25.12;51.44;100232.13;4949985;29;20063;-77
2022/06/08 09:45:14;;;;;;;8.38;3.67;;;;;;;25.02;53.85;100199.63;4951617;28;20038;-77
2022/06/08 09:51:25;;;;;;;8.77;5.15;;;;;;;27.04;47.11;100142.03;4936972;29;20098;-77
2022/06/08 09:54:09;;;;;;;18.75;8.70;;;;;;;27.01;45.55;100147.59;4934382;29;20059;-77
2022/06/08 09:57:08;;;;;;;13.85;5.93;;;;;;;27.10;43.86;100162.25;4932343;29;20067;-77
2022/06/08 10:00:00;;;;;;;16.92;9.70;;;;;;;26.62;45.25;100124.41;4941296;28;20114;-77
2022/06/08 10:02:26;;;;;;;30.98;14.57;;;;;;;26.26;47.69;100121.50;4939039;29;20035;-77
2022/06/08 10:05:11;;;;;;;23.80;11.82;;;;;;;26.42;48.17;100134.75;4943348;28;20038;-77
2022/06/08 10:07:50;;;;;;;19.58;8.38;;;;;;;25.81;43.06;100192.75;4947141;28;20151;-77
2022/06/08 10:11:00;;;;;;;16.65;9.60;;;;;;;26.31;45.12;100185.75;4938881;28;20030;-76
2022/06/08 10:13:39;;;;;;;11.10;5.88;;;;;;;27.12;46.02;100153.06;4893018;29;20041;-77
2022/06/08 10:16:14;;;;;;;22.98;11.93;;;;;;;27.23;45.83;100178.38;4882519;29;20040;-76
2022/06/08 10:18:46;;;;;;;17.50;8.82;;;;;;;26.55;46.54;100144.66;4934346;28;20046;-76
2022/06/08 10:21:16;;;;;;;45.33;21.07;;;;;;;28.05;45.25;100141.69;4971254;28;20062;-77
2022/06/08 10:23:59;;;;;;;18.88;8.63;;;;;;;28.30;41.01;100151.41;4970940;28;20468;-86
2022/06/08 10:26:30;;;;;;;57.38;22.00;;;;;;;28.82;36.46;100159.94;4960958;28;20042;-89
2022/06/08 10:29:13;;;;;;;15.48;6.97;;;;;;;27.78;36.31;100166.19;4955894;28;20212;-86
2022/06/08 10:31:49;;;;;;;17.70;7.53;;;;;;;27.41;39.99;100168.09;4958261;28;20131;-85
2022/06/08 10:34:35;;;;;;;47.15;16.80;;;;;;;28.00;39.10;100154.63;4955208;28;20039;-87
2022/06/08 10:37:12;;;;;;;23.40;11.00;;;;;;;27.65;40.21;100103.38;4958058;28;20510;-88
2022/06/08 10:39:42;;;;;;;22.77;11.98;;;;;;;27.39;43.42;100151.19;4956776;28;20126;-88
2022/06/08 10:42:40;;;;;;;56.55;20.63;;;;;;;25.91;44.17;100113.22;4946728;28;20078;-87
2022/06/08 10:45:18;;;;;;;21.75;10.52;;;;;;;25.69;45.06;100094.97;4966508;28;20031;-86
2022/06/08 10:48:05;;;;;;;37.47;16.88;;;;;;;25.73;44.87;100064.25;4966954;28;20035;-92
2022/06/08 10:50:36;;;;;;;44.42;16.90;;;;;;;26.56;45.66;100136.50;4945385;28;20122;-91
2022/06/08 10:56:28;;;;;;;85.80;30.38;;;;;;;27.72;40.98;100131.59;4971435;28;20479;-88
2022/06/08 10:59:07;;;;;;;98.15;32.50;;;;;;;27.73;41.03;100120.69;4975244;28;20055;-89
2022/06/08 11:01:54;;;;;;;123.90;34.28;;;;;;;27.66;40.16;100088.94;4966586;28;20031;-87
2022/06/08 11:04:35;;;;;;;84.72;31.08;;;;;;;27.50;41.34;100073.94;4977654;28;20070;-89
2022/06/08 11:07:11;;;;;;;84.43;27.45;;;;;;;26.63;41.65;100088.47;4955163;28;20067;-89
2022/06/08 11:09:36;;;;;;;73.80;27.88;;;;;;;27.39;41.10;100122.38;4942045;29;20283;-89
2022/06/08 11:12:23;;;;;;;86.13;30.73;;;;;;;27.50;40.39;100130.53;4934238;29;20475;-86
2022/06/08 11:14:56;;;;;;;81.28;28.98;;;;;;;27.29;40.41;100114.13;4945289;28;20408;-88
2022/06/08 11:17:29;;;;;;;73.20;26.17;;;;;;;27.29;40.28;100119.53;4938394;28;20035;-88
2022/06/08 11:20:18;;;;;;;86.75;32.58;;;;;;;27.15;39.19;100111.59;4948159;28;20055;-90
2022/06/08 11:22:52;;;;;;;70.00;25.13;;;;;;;27.36;39.82;100112.69;4946259;28;20039;-89
2022/06/08 11:25:26;;;;;;;86.20;29.73;;;;;;;27.08;41.95;100042.97;4932047;29;20063;-85
2022/06/08 11:28:30;;;;;;;37.08;16.98;;;;;;;26.12;38.11;100108.16;4932887;29;20070;-89
2022/06/08 11:31:05;;;;;;;21.77;10.98;;;;;;;25.34;43.03;100046.31;4938001;29;20027;-88
2022/06/08 11:33:50;;;;;;;13.70;6.35;;;;;;;25.52;44.88;100124.81;4946705;28;20039;-91
2022/06/08 11:36:40;;;;;;;13.25;7.38;;;;;;;25.00;44.48;100068.16;4936247;28;20783;-88
2022/06/08 11:39:40;;;;;;;16.58;6.95;;;;;;;25.27;44.13;100080.78;4931557;29;20110;-85
2022/06/08 11:42:22;;;;;;;30.55;14.65;;;;;;;26.16;43.82;100090.84;4943688;29;20821;-88
2022/06/08 11:45:20;;;;;;;35.65;17.08;;;;;;;25.20;44.26;100082.16;4953415;28;20411;-88
2022/06/08 11:47:49;;;;;;;14.30;7.70;;;;;;;25.42;44.47;100092.31;4945443;28;20125;-87
2022/06/08 11:50:23;;;;;;;51.17;20.35;;;;;;;26.02;43.31;100080.22;4942565;28;20043;-85
2022/06/08 11:53:01;;;;;;;9.70;4.50;;;;;;;26.01;42.24;100102.66;4944337;28;20035;-83
2022/06/08 11:55:31;;;;;;;11.05;5.15;;;;;;;25.63;43.41;100049.69;4931884;28;20147;-88